createdAt,value
2022-11-24T00:02:10.659Z,7.29
2022-11-24T00:04:40.156Z,7.34
2022-11-24T00:07:08.021Z,7.44
2022-11-24T00:09:36.308Z,7.45
2022-11-24T00:12:04.209Z,7.46
2022-11-24T00:14:32.549Z,7.61
2022-11-24T00:17:00.711Z,7.73
2022-11-24T00:19:29.231Z,7.80
2022-11-24T00:21:58.701Z,7.84
2022-11-24T00:24:26.537Z,7.82
2022-11-24T00:26:54.246Z,7.79
2022-11-24T00:29:22.336Z,7.67
2022-11-24T00:31:50.215Z,7.58
2022-11-24T00:34:18.098Z,7.55
2022-11-24T00:36:46.062Z,7.52
2022-11-24T00:39:16.401Z,7.52
2022-11-24T00:41:44.715Z,7.51
2022-11-24T00:44:12.594Z,7.56
2022-11-24T00:46:40.488Z,7.64
2022-11-24T00:49:09.271Z,7.71
2022-11-24T00:51:37.180Z,7.70
2022-11-24T00:54:06.351Z,7.64
2022-11-24T00:56:35.490Z,7.55
2022-11-24T00:59:03.399Z,7.71
2022-11-24T01:01:34.235Z,7.80
2022-11-24T01:04:02.619Z,7.86
2022-11-24T01:06:31.079Z,7.93
2022-11-24T01:08:59.746Z,7.98
2022-11-24T01:11:29.322Z,8.11
2022-11-24T01:13:59.251Z,8.17
2022-11-24T01:16:28.057Z,8.18
2022-11-24T01:18:56.339Z,8.26
2022-11-24T01:21:24.480Z,8.06
2022-11-24T01:23:52.841Z,8.04
2022-11-24T01:26:21.595Z,7.86
2022-11-24T01:28:53.510Z,7.83
2022-11-24T01:31:22.996Z,7.77
2022-11-24T01:33:51.080Z,7.73
2022-11-24T01:36:18.775Z,7.65
2022-11-24T01:38:46.601Z,7.60
2022-11-24T01:41:15.365Z,7.57
2022-11-24T01:43:43.362Z,7.54
2022-11-24T01:46:18.085Z,7.57
2022-11-24T01:48:50.019Z,7.63
2022-11-24T01:51:20.915Z,7.61
2022-11-24T01:53:51.619Z,7.68
2022-11-24T01:56:19.546Z,7.65
2022-11-24T01:58:50.211Z,7.57
2022-11-24T02:01:18.081Z,7.57
2022-11-24T02:03:49.118Z,7.67
2022-11-24T02:06:19.242Z,7.74
2022-11-24T02:08:50.408Z,7.84
2022-11-24T02:11:19.226Z,7.85
2022-11-24T02:13:49.121Z,7.87
2022-11-24T02:16:17.092Z,7.91
2022-11-24T02:18:45.510Z,7.93
2022-11-24T02:21:15.756Z,7.92
2022-11-24T02:23:46.101Z,7.85
2022-11-24T02:26:16.996Z,7.93
2022-11-24T02:28:48.059Z,8.14
2022-11-24T02:31:16.056Z,8.12
2022-11-24T02:33:44.038Z,8.10
2022-11-24T02:36:11.753Z,8.28
2022-11-24T02:38:39.808Z,8.41
2022-11-24T02:41:11.115Z,8.45
2022-11-24T02:43:40.972Z,8.36
2022-11-24T02:46:10.826Z,8.18
2022-11-24T02:48:39.032Z,8.19
2022-11-24T02:51:07.688Z,8.06
2022-11-24T02:53:35.946Z,8.11
2022-11-24T02:56:03.815Z,7.98
2022-11-24T02:58:31.808Z,7.91
2022-11-24T03:01:00.129Z,7.94
2022-11-24T03:03:29.523Z,7.98
2022-11-24T03:05:57.338Z,8.01
2022-11-24T03:08:25.122Z,8.09
2022-11-24T03:10:53.203Z,8.00
2022-11-24T03:13:21.014Z,7.99
2022-11-24T03:15:49.041Z,7.92
2022-11-24T03:18:16.981Z,7.76
2022-11-24T03:20:46.530Z,7.74
2022-11-24T03:23:14.340Z,7.69
2022-11-24T03:25:42.113Z,7.65
2022-11-24T03:28:10.513Z,7.55
2022-11-24T03:30:38.266Z,7.55
2022-11-24T03:33:09.634Z,7.60
2022-11-24T03:35:37.372Z,7.65
2022-11-24T03:38:06.684Z,7.68
2022-11-24T03:40:36.415Z,7.65
2022-11-24T03:43:04.345Z,7.55
2022-11-24T03:45:45.877Z,7.51
2022-11-24T03:48:14.441Z,7.50
2022-11-24T03:50:43.220Z,7.68
2022-11-24T03:53:12.642Z,7.72
2022-11-24T03:55:40.634Z,7.81
2022-11-24T03:58:08.389Z,7.85
2022-11-24T04:00:36.307Z,8.05
2022-11-24T04:03:05.884Z,8.16
2022-11-24T04:05:36.388Z,8.32
2022-11-24T04:08:05.855Z,8.51
2022-11-24T04:10:36.801Z,8.66
2022-11-24T04:13:03.996Z,8.83
2022-11-24T04:15:32.009Z,8.77
2022-11-24T04:17:59.838Z,8.73
2022-11-24T04:20:28.074Z,8.90
2022-11-24T04:22:56.349Z,9.07
2022-11-24T04:25:24.807Z,8.91
2022-11-24T04:27:55.395Z,9.02
2022-11-24T04:30:25.976Z,8.95
2022-11-24T04:32:53.842Z,9.05
2022-11-24T04:35:22.272Z,9.11
2022-11-24T04:37:49.936Z,9.13
2022-11-24T04:40:19.236Z,9.18
2022-11-24T04:42:55.517Z,9.19
2022-11-24T04:45:24.484Z,9.09
2022-11-24T04:47:52.429Z,9.03
2022-11-24T04:50:20.881Z,9.21
2022-11-24T04:52:48.582Z,9.13
2022-11-24T04:55:17.552Z,9.04
2022-11-24T04:57:45.247Z,8.94
2022-11-24T05:00:15.307Z,9.06
2022-11-24T05:02:43.178Z,8.99
2022-11-24T05:05:11.329Z,9.17
2022-11-24T05:07:39.184Z,9.32
2022-11-24T05:10:25.056Z,9.37
2022-11-24T05:12:57.137Z,9.56
2022-11-24T05:15:26.546Z,9.66
2022-11-24T05:17:54.200Z,9.60
2022-11-24T05:20:22.385Z,9.73
2022-11-24T05:22:50.087Z,9.82
2022-11-24T05:25:18.230Z,9.74
2022-11-24T05:27:46.023Z,9.74
2022-11-24T05:30:14.677Z,9.78
2022-11-24T05:32:43.795Z,9.81
2022-11-24T05:35:11.818Z,9.74
2022-11-24T05:37:39.562Z,9.80
2022-11-24T05:40:08.058Z,10.01
2022-11-24T05:42:47.177Z,10.07
2022-11-24T05:45:16.637Z,10.07
2022-11-24T05:47:46.162Z,10.04
2022-11-24T05:50:15.317Z,9.84
2022-11-24T05:52:43.611Z,9.72
2022-11-24T05:55:12.253Z,9.68
2022-11-24T05:57:40.014Z,9.72
2022-11-24T06:00:08.941Z,9.76
2022-11-24T06:02:42.872Z,9.76
2022-11-24T06:05:12.339Z,9.67
2022-11-24T06:07:40.326Z,9.66
2022-11-24T06:10:08.494Z,9.65
2022-11-24T06:12:36.932Z,9.63
2022-11-24T06:15:05.049Z,9.73
2022-11-24T06:17:33.173Z,9.75
2022-11-24T06:20:01.119Z,9.67
2022-11-24T06:22:30.376Z,9.71
2022-11-24T06:24:58.317Z,9.80
2022-11-24T06:27:26.559Z,10.00
2022-11-24T06:29:54.634Z,9.93
2022-11-24T06:32:22.626Z,10.01
2022-11-24T06:34:50.499Z,10.09
2022-11-24T06:37:18.370Z,9.88
2022-11-24T06:39:48.606Z,9.73
2022-11-24T06:42:18.884Z,9.71
2022-11-24T06:44:46.985Z,9.64
2022-11-24T06:47:14.820Z,9.58
2022-11-24T06:49:42.736Z,9.58
2022-11-24T06:52:10.493Z,9.52
2022-11-24T06:54:38.767Z,9.43
2022-11-24T06:57:08.119Z,9.59
2022-11-24T06:59:36.412Z,9.59
2022-11-24T07:02:04.375Z,9.54
2022-11-24T07:04:33.017Z,9.56
2022-11-24T07:07:01.207Z,9.58
2022-11-24T07:09:29.070Z,9.65
2022-11-24T07:11:57.475Z,9.59
2022-11-24T07:14:27.284Z,9.58
2022-11-24T07:16:55.478Z,9.61
2022-11-24T07:19:25.118Z,9.56
2022-11-24T07:21:53.178Z,9.47
2022-11-24T07:24:20.841Z,9.43
2022-11-24T07:26:48.652Z,9.53
2022-11-24T07:29:16.345Z,9.44
2022-11-24T07:31:46.248Z,9.48
2022-11-24T07:34:14.776Z,9.44
2022-11-24T07:36:42.827Z,9.47
2022-11-24T07:39:10.868Z,9.45
2022-11-24T07:41:38.945Z,9.36
2022-11-24T07:44:06.984Z,9.33
2022-11-24T07:46:34.895Z,9.41
2022-11-24T07:49:04.243Z,9.55
2022-11-24T07:51:32.183Z,9.58
2022-11-24T07:54:00.045Z,9.65
2022-11-24T07:56:28.024Z,9.74
2022-11-24T07:58:55.761Z,9.73
2022-11-24T08:01:24.083Z,9.81
2022-11-24T08:03:51.887Z,10.07
2022-11-24T08:06:26.049Z,10.25
2022-11-24T08:08:54.429Z,10.47
2022-11-24T08:11:22.918Z,10.48
2022-11-24T08:13:50.942Z,10.22
2022-11-24T08:16:20.106Z,10.15
2022-11-24T08:18:50.838Z,10.17
2022-11-24T08:21:19.105Z,10.09
2022-11-24T08:23:48.360Z,10.04
2022-11-24T08:26:18.781Z,9.89
2022-11-24T08:28:46.929Z,9.75
2022-11-24T08:31:15.604Z,9.76
2022-11-24T08:33:43.454Z,9.72
2022-11-24T08:36:12.714Z,9.72
2022-11-24T08:38:40.721Z,9.73
2022-11-24T08:41:13.025Z,9.76
2022-11-24T08:43:41.097Z,9.91
2022-11-24T08:46:09.653Z,10.01
2022-11-24T08:48:38.005Z,10.00
2022-11-24T08:51:08.311Z,10.12
2022-11-24T08:53:36.105Z,10.07
2022-11-24T08:56:04.711Z,9.91
2022-11-24T08:58:34.320Z,9.84
2022-11-24T09:01:05.304Z,9.87
2022-11-24T09:03:33.344Z,9.81
2022-11-24T09:06:01.307Z,9.76
2022-11-24T09:08:30.229Z,9.95
2022-11-24T09:11:00.812Z,10.30
2022-11-24T09:13:28.953Z,10.70
2022-11-24T09:15:58.568Z,11.14
2022-11-24T09:18:30.316Z,11.46
2022-11-24T09:21:07.152Z,11.75
2022-11-24T09:23:35.893Z,11.81
2022-11-24T09:26:05.021Z,11.62
2022-11-24T09:28:32.944Z,11.25
2022-11-24T09:31:06.915Z,11.08
2022-11-24T09:33:35.427Z,11.18
2022-11-24T09:36:03.386Z,11.43
2022-11-24T09:38:31.100Z,11.91
2022-11-24T09:41:13.411Z,12.20
2022-11-24T09:43:46.360Z,12.18
2022-11-24T09:46:20.337Z,13.21
2022-11-24T09:48:50.547Z,13.42
2022-11-24T09:51:20.794Z,12.97
2022-11-24T09:53:52.875Z,12.29
2022-11-24T09:56:22.364Z,11.91
2022-11-24T09:58:52.565Z,11.92
2022-11-24T10:01:24.189Z,12.38
2022-11-24T10:03:52.949Z,12.51
2022-11-24T10:06:23.279Z,14.13
2022-11-24T10:09:08.691Z,16.24
2022-11-24T10:11:39.452Z,17.14
2022-11-24T10:14:25.417Z,15.37
2022-11-24T10:16:58.580Z,13.87
2022-11-24T10:19:37.024Z,13.24
2022-11-24T10:22:13.524Z,12.84
2022-11-24T10:24:50.799Z,12.81
2022-11-24T10:27:19.318Z,12.89
2022-11-24T10:29:50.611Z,12.97
2022-11-24T10:32:21.487Z,12.83
2022-11-24T10:34:50.667Z,12.69
2022-11-24T10:37:23.048Z,13.29
2022-11-24T10:39:59.809Z,13.06
2022-11-24T10:42:29.190Z,12.45
2022-11-24T10:45:01.475Z,13.15
2022-11-24T10:47:31.316Z,13.11
2022-11-24T10:50:01.928Z,15.98
2022-11-24T10:52:30.960Z,16.54
2022-11-24T10:54:59.669Z,15.75
2022-11-24T10:57:28.815Z,15.15
2022-11-24T10:59:56.835Z,16.21
2022-11-24T11:02:35.815Z,17.13
2022-11-24T11:05:18.430Z,16.64
2022-11-24T11:07:46.093Z,16.77
2022-11-24T11:10:21.302Z,16.00
2022-11-24T11:12:49.050Z,15.18
2022-11-24T11:15:24.300Z,14.93
2022-11-24T11:17:57.427Z,14.68
2022-11-24T11:20:29.060Z,14.43
2022-11-24T11:22:58.573Z,13.91
2022-11-24T11:25:30.455Z,13.87
2022-11-24T11:28:17.654Z,13.65
2022-11-24T11:34:04.346Z,14.09
2022-11-24T11:36:33.964Z,16.92
2022-11-24T11:39:01.706Z,18.82
2022-11-24T11:41:32.102Z,19.72
2022-11-24T11:44:06.101Z,17.79
2022-11-24T11:46:34.688Z,15.90
2022-11-24T11:49:04.160Z,14.57
2022-11-24T11:51:46.938Z,14.38
2022-11-24T11:54:21.209Z,13.72
2022-11-24T11:56:50.441Z,13.41
2022-11-24T11:59:28.601Z,13.80
2022-11-24T12:02:03.820Z,13.59
2022-11-24T12:04:41.426Z,13.74
2022-11-24T12:07:18.421Z,14.33
2022-11-24T12:09:50.968Z,14.37
2022-11-24T12:12:31.840Z,13.80
2022-11-24T12:15:10.762Z,13.73
2022-11-24T12:17:41.603Z,13.67
2022-11-24T12:20:20.320Z,13.35
2022-11-24T12:22:52.157Z,13.56
2022-11-24T12:25:24.003Z,13.00
2022-11-24T12:27:55.524Z,12.70
2022-11-24T12:30:24.080Z,12.82
2022-11-24T12:33:09.550Z,12.80
2022-11-24T12:35:41.160Z,12.77
2022-11-24T12:38:17.471Z,12.83
2022-11-24T12:41:18.353Z,12.88
2022-11-24T12:43:49.752Z,12.82
2022-11-24T12:46:20.719Z,13.32
2022-11-24T12:48:55.611Z,13.19
2022-11-24T12:51:29.655Z,14.06
2022-11-24T12:53:58.659Z,15.87
2022-11-24T12:56:30.748Z,14.97
2022-11-24T12:59:04.544Z,13.59
2022-11-24T13:01:37.293Z,13.24
2022-11-24T13:04:08.222Z,13.25
2022-11-24T13:06:43.078Z,13.13
2022-11-24T13:09:14.579Z,13.65
2022-11-24T13:11:43.480Z,13.98
2022-11-24T13:14:17.118Z,15.61
2022-11-24T13:17:27.559Z,16.62
2022-11-24T13:19:40.680Z,15.82
2022-11-24T13:22:18.003Z,15.80
2022-11-24T13:24:46.040Z,15.08
2022-11-24T13:27:27.152Z,14.83
2022-11-24T13:29:55.429Z,17.00
2022-11-24T13:32:53.301Z,19.17
2022-11-24T13:35:20.899Z,19.75
2022-11-24T13:37:52.813Z,17.65
2022-11-24T13:40:45.829Z,15.27
2022-11-24T13:43:23.747Z,13.74
2022-11-24T13:45:53.880Z,13.86
2022-11-24T13:48:40.124Z,16.42
2022-11-24T13:51:10.350Z,17.59
2022-11-24T13:53:43.446Z,19.21
2022-11-24T13:56:22.244Z,19.52
2022-11-24T13:58:51.377Z,19.57
2022-11-24T14:01:20.902Z,19.48
2022-11-24T14:04:28.687Z,19.37
2022-11-24T14:06:45.542Z,19.57
2022-11-24T14:09:27.294Z,19.62
2022-11-24T14:11:58.957Z,18.09
2022-11-24T14:14:27.123Z,16.91
2022-11-24T14:17:10.748Z,17.49
2022-11-24T14:19:38.462Z,17.88
2022-11-24T14:22:06.695Z,17.02
2022-11-24T14:24:41.151Z,17.27
2022-11-24T14:27:15.423Z,17.47
2022-11-24T14:29:54.268Z,17.13
2022-11-24T14:32:23.073Z,16.40
2022-11-24T14:34:52.282Z,15.42
2022-11-24T14:37:20.551Z,15.03
2022-11-24T14:39:49.933Z,14.65
2022-11-24T14:42:18.802Z,14.30
2022-11-24T14:44:48.283Z,13.75
2022-11-24T14:47:20.125Z,13.21
2022-11-24T14:49:48.374Z,12.62
2022-11-24T14:52:17.512Z,12.29
2022-11-24T14:54:47.652Z,12.25
2022-11-24T14:57:24.566Z,11.91
2022-11-24T15:00:05.984Z,11.84
2022-11-24T15:02:39.436Z,11.66
2022-11-24T15:05:08.050Z,11.58
2022-11-24T15:07:37.915Z,11.43
2022-11-24T15:10:07.465Z,11.33
2022-11-24T15:12:38.791Z,11.33
2022-11-24T15:15:08.057Z,11.25
2022-11-24T15:17:35.842Z,11.19
2022-11-24T15:20:09.198Z,11.09
2022-11-24T15:22:39.698Z,10.97
2022-11-24T15:25:38.306Z,10.87
2022-11-24T15:28:09.248Z,10.75
2022-11-24T15:30:38.219Z,10.56
2022-11-24T15:33:12.643Z,10.44
2022-11-24T15:35:40.718Z,10.28
2022-11-24T15:38:08.528Z,10.10
2022-11-24T15:40:37.148Z,10.04
2022-11-24T15:43:18.032Z,9.92
2022-11-24T15:45:46.675Z,9.77
2022-11-24T15:48:17.915Z,9.61
2022-11-24T15:50:46.811Z,9.42
2022-11-24T15:53:18.472Z,9.38
2022-11-24T15:55:46.908Z,9.24
2022-11-24T15:58:16.405Z,9.17
2022-11-24T16:00:45.428Z,9.05
2022-11-24T16:03:45.159Z,8.91
2022-11-24T16:06:02.155Z,8.82
2022-11-24T16:08:30.264Z,8.76
2022-11-24T16:10:58.350Z,8.76
2022-11-24T16:13:27.774Z,8.81
2022-11-24T16:15:57.119Z,8.81
2022-11-24T16:18:25.475Z,8.84
2022-11-24T16:20:56.490Z,8.87
2022-11-24T16:23:24.485Z,8.87
2022-11-24T16:25:52.115Z,8.78
2022-11-24T16:28:20.421Z,8.59
2022-11-24T16:30:50.812Z,8.43
2022-11-24T16:33:18.761Z,8.34
2022-11-24T16:35:47.731Z,8.26
2022-11-24T16:38:15.891Z,8.35
2022-11-24T16:40:43.520Z,8.51
2022-11-24T16:43:11.286Z,8.56
2022-11-24T16:45:45.031Z,8.54
2022-11-24T16:48:14.520Z,8.49
2022-11-24T16:50:42.702Z,8.32
2022-11-24T16:53:10.963Z,8.30
2022-11-24T16:55:38.752Z,8.29
2022-11-24T16:58:06.911Z,8.14
2022-11-24T17:00:34.753Z,8.04
2022-11-24T17:03:02.611Z,7.86
2022-11-24T17:05:31.536Z,7.88
2022-11-24T17:07:59.627Z,7.91
2022-11-24T17:10:27.389Z,8.00
2022-11-24T17:12:55.150Z,8.09
2022-11-24T17:15:33.651Z,8.08
2022-11-24T17:18:23.993Z,8.06
2022-11-24T17:20:52.318Z,7.87
2022-11-24T17:23:20.654Z,7.73
2022-11-24T17:25:49.068Z,7.53
2022-11-24T17:28:16.890Z,7.46
2022-11-24T17:30:44.718Z,7.48
2022-11-24T17:33:12.609Z,7.46
2022-11-24T17:35:40.650Z,7.42
2022-11-24T17:38:10.633Z,7.38
2022-11-24T17:40:38.924Z,7.44
2022-11-24T17:43:07.256Z,7.34
2022-11-24T17:45:35.325Z,7.34
2022-11-24T17:51:02.383Z,7.20
2022-11-24T17:53:32.015Z,7.22
2022-11-24T17:56:00.796Z,7.34
2022-11-24T17:58:29.504Z,7.51
2022-11-24T18:00:58.329Z,7.60
2022-11-24T18:03:31.562Z,7.58
2022-11-24T18:06:04.903Z,7.46
2022-11-24T18:08:37.175Z,7.34
2022-11-24T18:11:05.319Z,7.24
2022-11-24T18:13:55.632Z,7.21
2022-11-24T18:16:22.459Z,7.25
2022-11-24T18:18:51.195Z,7.30
2022-11-24T18:21:19.389Z,7.42
2022-11-24T18:23:48.565Z,7.46
2022-11-24T18:26:17.387Z,7.36
2022-11-24T18:28:45.802Z,7.27
2022-11-24T18:31:14.555Z,7.36
2022-11-24T18:33:43.096Z,7.46
2022-11-24T18:36:13.026Z,7.64
2022-11-24T18:38:40.953Z,7.61
2022-11-24T18:41:11.891Z,7.54
2022-11-24T18:43:39.899Z,7.45
2022-11-24T18:46:08.563Z,7.53
2022-11-24T18:48:36.897Z,7.49
2022-11-24T18:51:04.938Z,7.43
2022-11-24T18:53:32.710Z,7.49
2022-11-24T18:56:01.325Z,7.57
2022-11-24T18:58:33.481Z,7.73
2022-11-24T19:01:08.329Z,7.82
2022-11-24T19:03:37.942Z,7.84
2022-11-24T19:06:07.037Z,7.87
2022-11-24T19:08:36.142Z,7.80
2022-11-24T19:11:04.030Z,7.69
2022-11-24T19:13:33.221Z,7.72
2022-11-24T19:16:01.489Z,7.61
2022-11-24T19:18:30.273Z,7.56
2022-11-24T19:20:58.334Z,7.47
2022-11-24T19:23:26.270Z,7.43
2022-11-24T19:25:54.186Z,7.40
2022-11-24T19:28:25.159Z,7.41
2022-11-24T19:30:54.691Z,7.44
2022-11-24T19:33:24.219Z,7.46
2022-11-24T19:35:59.969Z,7.44
2022-11-24T19:38:30.099Z,7.52
2022-11-24T19:41:02.219Z,7.44
2022-11-24T19:43:30.530Z,7.38
2022-11-24T19:46:02.795Z,7.42
2022-11-24T19:48:31.805Z,7.57
2022-11-24T19:51:00.636Z,7.66
2022-11-24T19:53:28.614Z,7.65
2022-11-24T19:55:56.701Z,7.70
2022-11-24T19:58:24.834Z,7.62
2022-11-24T20:00:53.140Z,7.58
2022-11-24T20:03:22.909Z,7.56
2022-11-24T20:05:56.083Z,7.48
2022-11-24T20:08:24.156Z,7.47
2022-11-24T20:10:52.084Z,7.55
2022-11-24T20:13:20.128Z,7.66
2022-11-24T20:15:47.997Z,7.69
2022-11-24T20:18:15.796Z,7.65
2022-11-24T20:20:45.135Z,7.68
2022-11-24T20:23:13.367Z,7.71
2022-11-24T20:25:41.458Z,7.75
2022-11-24T20:28:09.677Z,7.80
2022-11-24T20:30:37.545Z,7.82
2022-11-24T20:33:05.704Z,7.84
2022-11-24T20:35:34.881Z,7.72
2022-11-24T22:34:37.829Z,5.54
2022-11-24T22:59:03.032Z,4.87
2022-11-24T23:04:50.700Z,4.84
2022-11-24T23:11:01.539Z,4.71
2022-11-24T23:22:49.453Z,4.53
2022-11-24T23:31:34.456Z,4.38
2022-11-24T23:41:09.289Z,4.32
